sensor_id;sensor_type;location;lat;lon;timestamp;P1;durP1;ratioP1;P2;durP2;ratioP2
40601;SDS011;26310;50.278;19.032;2023-09-07T00:01:15;18.75;;;12.05;;
40601;SDS011;26310;50.278;19.032;2023-09-07T00:06:18;17.75;;;11.20;;
40601;SDS011;26310;50.278;19.032;2023-09-07T00:11:21;21.73;;;12.43;;
40601;SDS011;26310;50.278;19.032;2023-09-07T00:16:25;23.30;;;13.48;;
40601;SDS011;26310;50.278;19.032;2023-09-07T00:21:28;25.40;;;15.23;;
40601;SDS011;26310;50.278;19.032;2023-09-07T00:26:32;20.10;;;11.15;;
40601;SDS011;26310;50.278;19.032;2023-09-07T00:31:36;21.42;;;12.52;;
40601;SDS011;26310;50.278;19.032;2023-09-07T00:36:39;19.00;;;11.68;;
40601;SDS011;26310;50.278;19.032;2023-09-07T00:41:42;18.75;;;11.80;;
40601;SDS011;26310;50.278;19.032;2023-09-07T00:46:45;20.60;;;12.18;;
40601;SDS011;26310;50.278;19.032;2023-09-07T00:51:48;20.00;;;11.77;;
40601;SDS011;26310;50.278;19.032;2023-09-07T00:56:51;18.85;;;11.52;;
40601;SDS011;26310;50.278;19.032;2023-09-07T01:01:54;19.92;;;11.27;;
40601;SDS011;26310;50.278;19.032;2023-09-07T01:07:01;20.73;;;12.13;;
40601;SDS011;26310;50.278;19.032;2023-09-07T01:12:17;20.75;;;11.55;;
40601;SDS011;26310;50.278;19.032;2023-09-07T01:17:20;15.40;;;11.15;;
40601;SDS011;26310;50.278;19.032;2023-09-07T01:22:24;18.58;;;11.20;;
40601;SDS011;26310;50.278;19.032;2023-09-07T01:27:28;18.35;;;11.85;;
40601;SDS011;26310;50.278;19.032;2023-09-07T01:32:32;18.05;;;11.10;;
40601;SDS011;26310;50.278;19.032;2023-09-07T01:37:35;21.58;;;12.18;;
40601;SDS011;26310;50.278;19.032;2023-09-07T01:42:38;25.77;;;12.68;;
40601;SDS011;26310;50.278;19.032;2023-09-07T01:47:41;23.88;;;13.25;;
40601;SDS011;26310;50.278;19.032;2023-09-07T01:52:45;26.67;;;13.60;;
40601;SDS011;26310;50.278;19.032;2023-09-07T01:57:51;24.80;;;14.55;;
40601;SDS011;26310;50.278;19.032;2023-09-07T02:02:54;22.65;;;13.98;;
40601;SDS011;26310;50.278;19.032;2023-09-07T02:07:56;21.00;;;12.93;;
40601;SDS011;26310;50.278;19.032;2023-09-07T02:12:59;20.00;;;12.40;;
40601;SDS011;26310;50.278;19.032;2023-09-07T02:18:02;21.15;;;11.55;;
40601;SDS011;26310;50.278;19.032;2023-09-07T02:23:06;18.92;;;10.57;;
40601;SDS011;26310;50.278;19.032;2023-09-07T02:28:09;16.40;;;10.70;;
40601;SDS011;26310;50.278;19.032;2023-09-07T02:33:12;15.25;;;9.30;;
40601;SDS011;26310;50.278;19.032;2023-09-07T02:38:15;12.70;;;9.55;;
40601;SDS011;26310;50.278;19.032;2023-09-07T02:43:18;11.25;;;9.15;;
40601;SDS011;26310;50.278;19.032;2023-09-07T02:48:21;15.35;;;9.73;;
40601;SDS011;26310;50.278;19.032;2023-09-07T02:53:24;14.80;;;9.48;;
40601;SDS011;26310;50.278;19.032;2023-09-07T02:58:27;13.75;;;10.27;;
40601;SDS011;26310;50.278;19.032;2023-09-07T03:03:30;14.57;;;10.10;;
40601;SDS011;26310;50.278;19.032;2023-09-07T03:08:34;14.77;;;10.13;;
40601;SDS011;26310;50.278;19.032;2023-09-07T03:13:37;13.55;;;10.02;;
40601;SDS011;26310;50.278;19.032;2023-09-07T03:18:41;14.93;;;10.13;;
40601;SDS011;26310;50.278;19.032;2023-09-07T03:23:44;14.20;;;10.20;;
40601;SDS011;26310;50.278;19.032;2023-09-07T03:28:46;13.85;;;9.73;;
40601;SDS011;26310;50.278;19.032;2023-09-07T03:33:49;15.15;;;10.27;;
40601;SDS011;26310;50.278;19.032;2023-09-07T03:38:53;14.02;;;10.23;;
40601;SDS011;26310;50.278;19.032;2023-09-07T03:43:56;16.05;;;10.07;;
40601;SDS011;26310;50.278;19.032;2023-09-07T03:48:59;13.50;;;9.70;;
40601;SDS011;26310;50.278;19.032;2023-09-07T03:54:02;16.80;;;10.20;;
40601;SDS011;26310;50.278;19.032;2023-09-07T03:59:05;14.45;;;10.05;;
40601;SDS011;26310;50.278;19.032;2023-09-07T04:04:07;15.63;;;9.43;;
40601;SDS011;26310;50.278;19.032;2023-09-07T04:09:10;14.25;;;9.50;;
40601;SDS011;26310;50.278;19.032;2023-09-07T04:14:13;15.18;;;9.93;;
40601;SDS011;26310;50.278;19.032;2023-09-07T04:19:16;14.00;;;9.60;;
40601;SDS011;26310;50.278;19.032;2023-09-07T04:24:18;13.38;;;9.70;;
40601;SDS011;26310;50.278;19.032;2023-09-07T04:29:21;13.02;;;9.63;;
40601;SDS011;26310;50.278;19.032;2023-09-07T04:34:24;17.70;;;9.98;;
40601;SDS011;26310;50.278;19.032;2023-09-07T04:39:27;12.40;;;9.73;;
40601;SDS011;26310;50.278;19.032;2023-09-07T04:44:29;13.93;;;9.55;;
40601;SDS011;26310;50.278;19.032;2023-09-07T04:49:32;17.42;;;10.68;;
40601;SDS011;26310;50.278;19.032;2023-09-07T04:54:36;19.05;;;10.18;;
40601;SDS011;26310;50.278;19.032;2023-09-07T04:59:39;16.88;;;10.63;;
40601;SDS011;26310;50.278;19.032;2023-09-07T05:04:42;23.27;;;11.75;;
40601;SDS011;26310;50.278;19.032;2023-09-07T05:09:46;27.88;;;14.85;;
40601;SDS011;26310;50.278;19.032;2023-09-07T05:14:51;34.10;;;15.82;;
40601;SDS011;26310;50.278;19.032;2023-09-07T05:19:54;32.65;;;15.23;;
40601;SDS011;26310;50.278;19.032;2023-09-07T05:24:58;29.05;;;13.32;;
40601;SDS011;26310;50.278;19.032;2023-09-07T05:30:04;29.00;;;12.70;;
40601;SDS011;26310;50.278;19.032;2023-09-07T05:35:08;17.33;;;11.70;;
40601;SDS011;26310;50.278;19.032;2023-09-07T05:40:13;19.27;;;12.23;;
40601;SDS011;26310;50.278;19.032;2023-09-07T05:45:16;18.90;;;11.90;;
40601;SDS011;26310;50.278;19.032;2023-09-07T05:50:19;16.95;;;11.95;;
40601;SDS011;26310;50.278;19.032;2023-09-07T05:55:22;23.10;;;11.32;;
40601;SDS011;26310;50.278;19.032;2023-09-07T06:00:25;25.63;;;12.52;;
40601;SDS011;26310;50.278;19.032;2023-09-07T06:05:29;16.75;;;10.73;;
40601;SDS011;26310;50.278;19.032;2023-09-07T06:10:37;19.15;;;11.65;;
40601;SDS011;26310;50.278;19.032;2023-09-07T06:15:40;19.15;;;11.50;;
40601;SDS011;26310;50.278;19.032;2023-09-07T06:20:44;17.27;;;9.32;;
40601;SDS011;26310;50.278;19.032;2023-09-07T06:25:47;15.48;;;10.55;;
40601;SDS011;26310;50.278;19.032;2023-09-07T06:30:50;14.57;;;9.73;;
40601;SDS011;26310;50.278;19.032;2023-09-07T06:35:53;16.23;;;10.43;;
40601;SDS011;26310;50.278;19.032;2023-09-07T06:40:56;25.90;;;12.55;;
40601;SDS011;26310;50.278;19.032;2023-09-07T06:46:05;22.15;;;11.50;;
40601;SDS011;26310;50.278;19.032;2023-09-07T06:51:12;15.43;;;10.10;;
40601;SDS011;26310;50.278;19.032;2023-09-07T06:56:16;17.85;;;9.15;;
40601;SDS011;26310;50.278;19.032;2023-09-07T07:01:19;10.48;;;8.30;;
40601;SDS011;26310;50.278;19.032;2023-09-07T07:06:22;18.48;;;9.70;;
40601;SDS011;26310;50.278;19.032;2023-09-07T07:11:26;12.77;;;7.82;;
40601;SDS011;26310;50.278;19.032;2023-09-07T07:16:28;8.88;;;7.10;;
40601;SDS011;26310;50.278;19.032;2023-09-07T07:21:31;15.13;;;7.55;;
40601;SDS011;26310;50.278;19.032;2023-09-07T07:26:34;8.32;;;5.70;;
40601;SDS011;26310;50.278;19.032;2023-09-07T07:31:37;8.88;;;6.45;;
40601;SDS011;26310;50.278;19.032;2023-09-07T07:36:41;10.32;;;6.28;;
40601;SDS011;26310;50.278;19.032;2023-09-07T07:41:43;10.45;;;5.57;;
40601;SDS011;26310;50.278;19.032;2023-09-07T07:46:47;10.88;;;7.03;;
40601;SDS011;26310;50.278;19.032;2023-09-07T07:51:50;9.13;;;5.82;;
40601;SDS011;26310;50.278;19.032;2023-09-07T07:56:53;7.13;;;5.28;;
40601;SDS011;26310;50.278;19.032;2023-09-07T08:01:56;11.32;;;6.10;;
40601;SDS011;26310;50.278;19.032;2023-09-07T08:06:58;8.40;;;6.35;;
40601;SDS011;26310;50.278;19.032;2023-09-07T08:12:05;7.40;;;5.82;;
40601;SDS011;26310;50.278;19.032;2023-09-07T08:17:08;8.43;;;6.18;;
40601;SDS011;26310;50.278;19.032;2023-09-07T08:22:11;9.57;;;6.25;;
40601;SDS011;26310;50.278;19.032;2023-09-07T08:27:14;8.27;;;5.55;;
40601;SDS011;26310;50.278;19.032;2023-09-07T08:32:20;9.43;;;6.75;;
40601;SDS011;26310;50.278;19.032;2023-09-07T08:37:24;6.47;;;4.80;;
40601;SDS011;26310;50.278;19.032;2023-09-07T08:42:27;9.07;;;4.72;;
40601;SDS011;26310;50.278;19.032;2023-09-07T08:47:30;8.77;;;5.32;;
40601;SDS011;26310;50.278;19.032;2023-09-07T08:52:34;7.85;;;4.75;;
40601;SDS011;26310;50.278;19.032;2023-09-07T08:57:37;9.52;;;5.15;;
40601;SDS011;26310;50.278;19.032;2023-09-07T09:02:42;8.52;;;5.30;;
40601;SDS011;26310;50.278;19.032;2023-09-07T09:08:01;4.97;;;4.18;;
40601;SDS011;26310;50.278;19.032;2023-09-07T09:13:06;7.05;;;4.03;;
40601;SDS011;26310;50.278;19.032;2023-09-07T09:18:10;7.20;;;4.32;;
40601;SDS011;26310;50.278;19.032;2023-09-07T09:23:14;6.15;;;4.60;;
40601;SDS011;26310;50.278;19.032;2023-09-07T09:28:17;4.15;;;3.75;;
40601;SDS011;26310;50.278;19.032;2023-09-07T09:33:20;7.30;;;4.65;;
40601;SDS011;26310;50.278;19.032;2023-09-07T09:38:24;5.25;;;3.67;;
40601;SDS011;26310;50.278;19.032;2023-09-07T09:43:27;9.75;;;4.82;;
40601;SDS011;26310;50.278;19.032;2023-09-07T09:48:30;5.85;;;3.85;;
40601;SDS011;26310;50.278;19.032;2023-09-07T09:53:36;5.00;;;4.18;;
40601;SDS011;26310;50.278;19.032;2023-09-07T09:58:39;7.35;;;4.75;;
40601;SDS011;26310;50.278;19.032;2023-09-07T10:03:44;6.20;;;4.45;;
40601;SDS011;26310;50.278;19.032;2023-09-07T10:08:59;4.53;;;3.80;;
40601;SDS011;26310;50.278;19.032;2023-09-07T10:14:09;5.20;;;4.05;;
40601;SDS011;26310;50.278;19.032;2023-09-07T10:19:16;6.55;;;4.35;;
40601;SDS011;26310;50.278;19.032;2023-09-07T10:24:28;5.70;;;4.25;;
40601;SDS011;26310;50.278;19.032;2023-09-07T10:29:50;5.20;;;4.13;;
40601;SDS011;26310;50.278;19.032;2023-09-07T10:34:59;5.40;;;4.07;;
40601;SDS011;26310;50.278;19.032;2023-09-07T10:40:02;5.72;;;3.80;;
40601;SDS011;26310;50.278;19.032;2023-09-07T10:45:08;5.20;;;4.30;;
40601;SDS011;26310;50.278;19.032;2023-09-07T10:50:13;12.32;;;9.18;;
40601;SDS011;26310;50.278;19.032;2023-09-07T10:55:17;5.53;;;4.38;;
40601;SDS011;26310;50.278;19.032;2023-09-07T11:00:20;5.00;;;4.05;;
40601;SDS011;26310;50.278;19.032;2023-09-07T11:05:24;7.13;;;5.10;;
40601;SDS011;26310;50.278;19.032;2023-09-07T11:10:27;6.30;;;4.10;;
40601;SDS011;26310;50.278;19.032;2023-09-07T11:15:31;7.50;;;5.63;;
40601;SDS011;26310;50.278;19.032;2023-09-07T11:20:36;8.10;;;6.70;;
40601;SDS011;26310;50.278;19.032;2023-09-07T11:25:41;8.40;;;4.47;;
40601;SDS011;26310;50.278;19.032;2023-09-07T11:30:48;5.05;;;4.30;;
40601;SDS011;26310;50.278;19.032;2023-09-07T11:35:55;4.15;;;3.75;;
40601;SDS011;26310;50.278;19.032;2023-09-07T11:40:58;5.03;;;3.67;;
40601;SDS011;26310;50.278;19.032;2023-09-07T11:46:01;5.57;;;3.97;;
40601;SDS011;26310;50.278;19.032;2023-09-07T11:51:06;4.50;;;4.10;;
40601;SDS011;26310;50.278;19.032;2023-09-07T11:56:10;8.05;;;4.63;;
40601;SDS011;26310;50.278;19.032;2023-09-07T12:01:12;8.68;;;5.78;;
40601;SDS011;26310;50.278;19.032;2023-09-07T12:06:18;11.25;;;9.40;;
40601;SDS011;26310;50.278;19.032;2023-09-07T12:11:21;6.65;;;4.35;;
40601;SDS011;26310;50.278;19.032;2023-09-07T12:16:25;5.57;;;3.97;;
40601;SDS011;26310;50.278;19.032;2023-09-07T12:21:29;7.78;;;5.88;;
40601;SDS011;26310;50.278;19.032;2023-09-07T12:26:32;6.65;;;5.30;;
40601;SDS011;26310;50.278;19.032;2023-09-07T12:31:35;8.48;;;6.43;;
40601;SDS011;26310;50.278;19.032;2023-09-07T12:36:38;5.78;;;4.47;;
40601;SDS011;26310;50.278;19.032;2023-09-07T12:41:40;5.45;;;4.72;;
40601;SDS011;26310;50.278;19.032;2023-09-07T12:46:43;4.90;;;3.67;;
40601;SDS011;26310;50.278;19.032;2023-09-07T12:51:46;6.82;;;4.07;;
40601;SDS011;26310;50.278;19.032;2023-09-07T12:56:49;5.15;;;4.30;;
40601;SDS011;26310;50.278;19.032;2023-09-07T13:01:52;5.57;;;4.28;;
40601;SDS011;26310;50.278;19.032;2023-09-07T13:06:57;6.45;;;5.10;;
40601;SDS011;26310;50.278;19.032;2023-09-07T13:12:01;6.43;;;3.63;;
40601;SDS011;26310;50.278;19.032;2023-09-07T13:17:04;5.38;;;4.05;;
40601;SDS011;26310;50.278;19.032;2023-09-07T13:22:06;7.07;;;4.15;;
40601;SDS011;26310;50.278;19.032;2023-09-07T13:27:11;5.22;;;4.43;;
40601;SDS011;26310;50.278;19.032;2023-09-07T13:32:14;8.30;;;4.43;;
40601;SDS011;26310;50.278;19.032;2023-09-07T13:37:17;5.65;;;4.43;;
40601;SDS011;26310;50.278;19.032;2023-09-07T13:42:20;6.93;;;3.30;;
40601;SDS011;26310;50.278;19.032;2023-09-07T13:47:24;5.75;;;3.65;;
40601;SDS011;26310;50.278;19.032;2023-09-07T13:52:27;5.80;;;3.97;;
40601;SDS011;26310;50.278;19.032;2023-09-07T13:57:30;5.95;;;4.47;;
40601;SDS011;26310;50.278;19.032;2023-09-07T14:02:34;4.80;;;4.18;;
40601;SDS011;26310;50.278;19.032;2023-09-07T14:07:38;5.15;;;3.55;;
40601;SDS011;26310;50.278;19.032;2023-09-07T14:12:43;9.23;;;4.45;;
40601;SDS011;26310;50.278;19.032;2023-09-07T14:17:46;4.72;;;3.80;;
40601;SDS011;26310;50.278;19.032;2023-09-07T14:22:49;6.35;;;3.90;;
40601;SDS011;26310;50.278;19.032;2023-09-07T14:27:52;4.85;;;3.22;;
40601;SDS011;26310;50.278;19.032;2023-09-07T14:32:55;6.32;;;3.60;;
40601;SDS011;26310;50.278;19.032;2023-09-07T14:37:58;6.03;;;3.42;;
40601;SDS011;26310;50.278;19.032;2023-09-07T14:43:01;5.68;;;3.92;;
40601;SDS011;26310;50.278;19.032;2023-09-07T14:48:08;5.90;;;4.28;;
40601;SDS011;26310;50.278;19.032;2023-09-07T14:53:11;5.38;;;4.05;;
40601;SDS011;26310;50.278;19.032;2023-09-07T14:58:14;7.18;;;4.38;;
40601;SDS011;26310;50.278;19.032;2023-09-07T15:03:18;6.18;;;3.90;;
40601;SDS011;26310;50.278;19.032;2023-09-07T15:08:21;5.65;;;4.15;;
40601;SDS011;26310;50.278;19.032;2023-09-07T15:13:29;5.00;;;4.18;;
40601;SDS011;26310;50.278;19.032;2023-09-07T15:18:32;4.50;;;3.50;;
40601;SDS011;26310;50.278;19.032;2023-09-07T15:23:36;4.88;;;3.00;;
40601;SDS011;26310;50.278;19.032;2023-09-07T15:28:39;5.03;;;4.53;;
40601;SDS011;26310;50.278;19.032;2023-09-07T15:33:42;4.38;;;3.67;;
40601;SDS011;26310;50.278;19.032;2023-09-07T15:38:45;7.50;;;4.65;;
40601;SDS011;26310;50.278;19.032;2023-09-07T15:43:50;6.47;;;4.25;;
40601;SDS011;26310;50.278;19.032;2023-09-07T15:48:53;5.78;;;3.92;;
40601;SDS011;26310;50.278;19.032;2023-09-07T15:53:56;6.57;;;4.40;;
40601;SDS011;26310;50.278;19.032;2023-09-07T15:58:59;7.32;;;4.25;;
40601;SDS011;26310;50.278;19.032;2023-09-07T16:04:02;5.85;;;4.50;;
40601;SDS011;26310;50.278;19.032;2023-09-07T16:09:06;5.05;;;3.92;;
40601;SDS011;26310;50.278;19.032;2023-09-07T16:14:12;5.20;;;4.53;;
40601;SDS011;26310;50.278;19.032;2023-09-07T16:19:15;6.30;;;4.20;;
40601;SDS011;26310;50.278;19.032;2023-09-07T16:24:18;6.22;;;4.57;;
40601;SDS011;26310;50.278;19.032;2023-09-07T16:29:23;5.47;;;4.88;;
40601;SDS011;26310;50.278;19.032;2023-09-07T16:34:29;6.13;;;4.88;;
40601;SDS011;26310;50.278;19.032;2023-09-07T16:39:38;5.88;;;4.88;;
40601;SDS011;26310;50.278;19.032;2023-09-07T16:44:41;10.07;;;4.55;;
40601;SDS011;26310;50.278;19.032;2023-09-07T16:49:44;6.30;;;4.30;;
40601;SDS011;26310;50.278;19.032;2023-09-07T16:54:47;6.63;;;4.82;;
40601;SDS011;26310;50.278;19.032;2023-09-07T16:59:50;6.90;;;5.10;;
40601;SDS011;26310;50.278;19.032;2023-09-07T17:04:58;8.88;;;4.82;;
40601;SDS011;26310;50.278;19.032;2023-09-07T17:10:01;7.85;;;5.03;;
40601;SDS011;26310;50.278;19.032;2023-09-07T17:15:04;8.40;;;5.50;;
40601;SDS011;26310;50.278;19.032;2023-09-07T17:20:07;6.22;;;4.95;;
40601;SDS011;26310;50.278;19.032;2023-09-07T17:25:11;8.98;;;5.53;;
40601;SDS011;26310;50.278;19.032;2023-09-07T17:30:16;8.65;;;5.82;;
40601;SDS011;26310;50.278;19.032;2023-09-07T17:35:20;7.57;;;5.43;;
40601;SDS011;26310;50.278;19.032;2023-09-07T17:40:23;9.13;;;5.85;;
40601;SDS011;26310;50.278;19.032;2023-09-07T17:45:27;8.57;;;6.10;;
40601;SDS011;26310;50.278;19.032;2023-09-07T17:50:42;8.88;;;6.07;;
40601;SDS011;26310;50.278;19.032;2023-09-07T17:55:44;9.38;;;5.95;;
40601;SDS011;26310;50.278;19.032;2023-09-07T18:00:47;6.35;;;5.55;;
40601;SDS011;26310;50.278;19.032;2023-09-07T18:05:50;8.75;;;6.30;;
40601;SDS011;26310;50.278;19.032;2023-09-07T18:10:53;7.25;;;6.55;;
40601;SDS011;26310;50.278;19.032;2023-09-07T18:15:59;7.30;;;6.10;;
40601;SDS011;26310;50.278;19.032;2023-09-07T18:21:05;12.40;;;7.20;;
40601;SDS011;26310;50.278;19.032;2023-09-07T18:26:12;10.43;;;7.68;;
40601;SDS011;26310;50.278;19.032;2023-09-07T18:31:17;11.45;;;7.72;;
40601;SDS011;26310;50.278;19.032;2023-09-07T18:36:20;8.95;;;7.95;;
40601;SDS011;26310;50.278;19.032;2023-09-07T18:41:30;11.80;;;8.20;;
40601;SDS011;26310;50.278;19.032;2023-09-07T18:46:45;8.90;;;7.57;;
40601;SDS011;26310;50.278;19.032;2023-09-07T18:51:49;13.52;;;8.13;;
40601;SDS011;26310;50.278;19.032;2023-09-07T18:56:53;11.95;;;8.23;;
40601;SDS011;26310;50.278;19.032;2023-09-07T19:02:00;13.93;;;8.25;;
40601;SDS011;26310;50.278;19.032;2023-09-07T19:07:06;11.25;;;8.05;;
40601;SDS011;26310;50.278;19.032;2023-09-07T19:12:10;13.15;;;8.10;;
40601;SDS011;26310;50.278;19.032;2023-09-07T19:17:16;11.98;;;8.23;;
40601;SDS011;26310;50.278;19.032;2023-09-07T19:22:23;15.68;;;8.50;;
40601;SDS011;26310;50.278;19.032;2023-09-07T19:27:28;12.15;;;8.48;;
40601;SDS011;26310;50.278;19.032;2023-09-07T19:32:31;16.33;;;9.98;;
40601;SDS011;26310;50.278;19.032;2023-09-07T19:37:35;15.15;;;9.48;;
40601;SDS011;26310;50.278;19.032;2023-09-07T19:42:39;14.70;;;9.18;;
40601;SDS011;26310;50.278;19.032;2023-09-07T19:47:43;14.40;;;10.07;;
40601;SDS011;26310;50.278;19.032;2023-09-07T19:52:47;13.73;;;9.45;;
40601;SDS011;26310;50.278;19.032;2023-09-07T19:57:50;13.40;;;9.00;;
40601;SDS011;26310;50.278;19.032;2023-09-07T20:02:55;15.35;;;10.68;;
40601;SDS011;26310;50.278;19.032;2023-09-07T20:08:02;15.13;;;10.40;;
40601;SDS011;26310;50.278;19.032;2023-09-07T20:13:06;14.75;;;10.73;;
40601;SDS011;26310;50.278;19.032;2023-09-07T20:18:11;18.75;;;11.82;;
40601;SDS011;26310;50.278;19.032;2023-09-07T20:23:14;18.33;;;11.65;;
40601;SDS011;26310;50.278;19.032;2023-09-07T20:28:17;16.15;;;11.35;;
40601;SDS011;26310;50.278;19.032;2023-09-07T20:33:20;17.75;;;11.05;;
40601;SDS011;26310;50.278;19.032;2023-09-07T20:38:22;16.38;;;10.93;;
40601;SDS011;26310;50.278;19.032;2023-09-07T20:43:25;16.83;;;11.38;;
40601;SDS011;26310;50.278;19.032;2023-09-07T20:48:28;17.65;;;11.10;;
40601;SDS011;26310;50.278;19.032;2023-09-07T20:53:31;21.10;;;13.23;;
40601;SDS011;26310;50.278;19.032;2023-09-07T20:58:34;21.35;;;13.05;;
40601;SDS011;26310;50.278;19.032;2023-09-07T21:03:37;26.27;;;17.20;;
40601;SDS011;26310;50.278;19.032;2023-09-07T21:08:40;28.73;;;17.80;;
40601;SDS011;26310;50.278;19.032;2023-09-07T21:13:43;22.23;;;15.60;;
40601;SDS011;26310;50.278;19.032;2023-09-07T21:18:46;17.67;;;13.48;;
40601;SDS011;26310;50.278;19.032;2023-09-07T21:23:49;22.85;;;12.73;;
40601;SDS011;26310;50.278;19.032;2023-09-07T21:28:52;20.58;;;13.27;;
40601;SDS011;26310;50.278;19.032;2023-09-07T21:33:55;16.63;;;11.60;;
40601;SDS011;26310;50.278;19.032;2023-09-07T21:38:58;16.33;;;11.20;;
40601;SDS011;26310;50.278;19.032;2023-09-07T21:44:01;16.63;;;10.77;;
40601;SDS011;26310;50.278;19.032;2023-09-07T21:49:03;15.25;;;10.63;;
40601;SDS011;26310;50.278;19.032;2023-09-07T21:54:07;14.93;;;10.45;;
40601;SDS011;26310;50.278;19.032;2023-09-07T21:59:10;13.57;;;10.70;;
40601;SDS011;26310;50.278;19.032;2023-09-07T22:04:13;14.68;;;10.75;;
40601;SDS011;26310;50.278;19.032;2023-09-07T22:09:16;16.42;;;10.93;;
40601;SDS011;26310;50.278;19.032;2023-09-07T22:14:19;16.80;;;10.82;;
40601;SDS011;26310;50.278;19.032;2023-09-07T22:19:21;17.80;;;10.73;;
40601;SDS011;26310;50.278;19.032;2023-09-07T22:24:24;16.23;;;11.02;;
40601;SDS011;26310;50.278;19.032;2023-09-07T22:29:27;15.45;;;11.18;;
40601;SDS011;26310;50.278;19.032;2023-09-07T22:34:30;18.70;;;11.65;;
40601;SDS011;26310;50.278;19.032;2023-09-07T22:39:33;16.33;;;11.00;;
40601;SDS011;26310;50.278;19.032;2023-09-07T22:44:36;17.60;;;11.88;;
40601;SDS011;26310;50.278;19.032;2023-09-07T22:49:39;15.32;;;11.05;;
40601;SDS011;26310;50.278;19.032;2023-09-07T22:54:41;14.57;;;11.40;;
40601;SDS011;26310;50.278;19.032;2023-09-07T22:59:44;17.05;;;11.80;;
40601;SDS011;26310;50.278;19.032;2023-09-07T23:04:47;17.45;;;11.63;;
40601;SDS011;26310;50.278;19.032;2023-09-07T23:09:50;17.05;;;11.98;;
40601;SDS011;26310;50.278;19.032;2023-09-07T23:14:53;18.60;;;12.63;;
40601;SDS011;26310;50.278;19.032;2023-09-07T23:19:56;16.70;;;12.27;;
40601;SDS011;26310;50.278;19.032;2023-09-07T23:24:59;19.52;;;12.80;;
40601;SDS011;26310;50.278;19.032;2023-09-07T23:30:03;16.50;;;11.50;;
40601;SDS011;26310;50.278;19.032;2023-09-07T23:35:12;17.35;;;12.18;;
40601;SDS011;26310;50.278;19.032;2023-09-07T23:40:15;21.50;;;13.80;;
40601;SDS011;26310;50.278;19.032;2023-09-07T23:45:18;25.45;;;15.13;;
40601;SDS011;26310;50.278;19.032;2023-09-07T23:50:21;24.15;;;14.82;;
40601;SDS011;26310;50.278;19.032;2023-09-07T23:55:25;24.23;;;15.05;;
